sensor_id;sensor_type;location;lat;lon;timestamp;temperature;humidity
27306;DHT22;14792;50.886;6.468;2022-10-16T00:02:22;13.50;99.90
27306;DHT22;14792;50.886;6.468;2022-10-16T00:05:24;13.50;99.90
27306;DHT22;14792;50.886;6.468;2022-10-16T00:08:25;13.50;99.90
27306;DHT22;14792;50.886;6.468;2022-10-16T00:11:28;13.50;99.90
27306;DHT22;14792;50.886;6.468;2022-10-16T00:14:29;13.50;99.90
27306;DHT22;14792;50.886;6.468;2022-10-16T00:17:30;13.50;99.90
27306;DHT22;14792;50.886;6.468;2022-10-16T00:20:34;13.50;99.90
27306;DHT22;14792;50.886;6.468;2022-10-16T00:23:34;13.40;99.90
27306;DHT22;14792;50.886;6.468;2022-10-16T00:26:36;13.40;99.90
27306;DHT22;14792;50.886;6.468;2022-10-16T00:29:36;13.40;99.90
27306;DHT22;14792;50.886;6.468;2022-10-16T00:32:38;13.30;99.90
27306;DHT22;14792;50.886;6.468;2022-10-16T00:35:40;13.20;99.90
27306;DHT22;14792;50.886;6.468;2022-10-16T00:38:41;13.20;99.90
27306;DHT22;14792;50.886;6.468;2022-10-16T00:41:43;13.10;99.90
27306;DHT22;14792;50.886;6.468;2022-10-16T00:44:56;13.10;99.90
27306;DHT22;14792;50.886;6.468;2022-10-16T00:47:55;13.00;99.90
27306;DHT22;14792;50.886;6.468;2022-10-16T00:50:57;12.90;99.90
27306;DHT22;14792;50.886;6.468;2022-10-16T00:53:59;12.90;99.90
27306;DHT22;14792;50.886;6.468;2022-10-16T00:57:01;12.80;99.90
27306;DHT22;14792;50.886;6.468;2022-10-16T01:00:03;12.70;99.90
27306;DHT22;14792;50.886;6.468;2022-10-16T01:03:22;12.70;99.90
27306;DHT22;14792;50.886;6.468;2022-10-16T01:09:17;12.60;99.90
27306;DHT22;14792;50.886;6.468;2022-10-16T01:12:51;12.60;99.90
27306;DHT22;14792;50.886;6.468;2022-10-16T01:16:17;12.60;99.90
27306;DHT22;14792;50.886;6.468;2022-10-16T01:22:23;12.40;99.90
27306;DHT22;14792;50.886;6.468;2022-10-16T01:28:57;12.40;99.90
27306;DHT22;14792;50.886;6.468;2022-10-16T01:31:59;12.40;99.90
27306;DHT22;14792;50.886;6.468;2022-10-16T01:35:00;12.40;99.90
27306;DHT22;14792;50.886;6.468;2022-10-16T01:38:26;12.30;99.90
27306;DHT22;14792;50.886;6.468;2022-10-16T01:41:32;12.50;99.90
27306;DHT22;14792;50.886;6.468;2022-10-16T01:44:31;12.60;99.90
27306;DHT22;14792;50.886;6.468;2022-10-16T01:47:31;12.70;99.90
27306;DHT22;14792;50.886;6.468;2022-10-16T01:50:34;12.70;99.90
27306;DHT22;14792;50.886;6.468;2022-10-16T01:53:34;12.70;99.90
27306;DHT22;14792;50.886;6.468;2022-10-16T01:56:36;12.70;99.90
27306;DHT22;14792;50.886;6.468;2022-10-16T01:59:40;12.70;99.90
27306;DHT22;14792;50.886;6.468;2022-10-16T02:02:44;12.80;99.90
27306;DHT22;14792;50.886;6.468;2022-10-16T02:05:50;12.80;99.90
27306;DHT22;14792;50.886;6.468;2022-10-16T02:08:48;12.80;99.90
27306;DHT22;14792;50.886;6.468;2022-10-16T02:11:52;12.80;99.90
27306;DHT22;14792;50.886;6.468;2022-10-16T02:14:53;12.90;99.90
27306;DHT22;14792;50.886;6.468;2022-10-16T02:17:55;12.90;99.90
27306;DHT22;14792;50.886;6.468;2022-10-16T02:21:00;12.90;99.90
27306;DHT22;14792;50.886;6.468;2022-10-16T02:24:15;12.90;99.90
27306;DHT22;14792;50.886;6.468;2022-10-16T02:27:25;12.90;99.90
27306;DHT22;14792;50.886;6.468;2022-10-16T02:30:27;12.90;99.90
27306;DHT22;14792;50.886;6.468;2022-10-16T02:33:26;12.90;99.90
27306;DHT22;14792;50.886;6.468;2022-10-16T02:36:28;12.90;99.90
27306;DHT22;14792;50.886;6.468;2022-10-16T02:39:30;12.90;99.90
27306;DHT22;14792;50.886;6.468;2022-10-16T02:42:37;12.90;99.90
27306;DHT22;14792;50.886;6.468;2022-10-16T02:45:36;12.80;99.90
27306;DHT22;14792;50.886;6.468;2022-10-16T02:48:40;12.90;99.90
27306;DHT22;14792;50.886;6.468;2022-10-16T02:51:39;12.80;99.90
27306;DHT22;14792;50.886;6.468;2022-10-16T02:54:40;12.80;99.90
27306;DHT22;14792;50.886;6.468;2022-10-16T02:57:42;12.80;99.90
27306;DHT22;14792;50.886;6.468;2022-10-16T03:00:43;12.80;99.90
27306;DHT22;14792;50.886;6.468;2022-10-16T03:03:45;12.90;99.90
27306;DHT22;14792;50.886;6.468;2022-10-16T03:06:47;12.90;99.90
27306;DHT22;14792;50.886;6.468;2022-10-16T03:09:48;12.90;99.90
27306;DHT22;14792;50.886;6.468;2022-10-16T03:12:50;12.90;99.90
27306;DHT22;14792;50.886;6.468;2022-10-16T03:15:52;12.80;99.90
27306;DHT22;14792;50.886;6.468;2022-10-16T03:18:54;12.80;99.90
27306;DHT22;14792;50.886;6.468;2022-10-16T03:21:55;12.80;99.90
27306;DHT22;14792;50.886;6.468;2022-10-16T03:24:57;12.80;99.90
27306;DHT22;14792;50.886;6.468;2022-10-16T03:27:58;12.80;99.90
27306;DHT22;14792;50.886;6.468;2022-10-16T03:31:00;12.70;99.90
27306;DHT22;14792;50.886;6.468;2022-10-16T03:34:02;12.70;99.90
27306;DHT22;14792;50.886;6.468;2022-10-16T03:37:03;12.80;99.90
27306;DHT22;14792;50.886;6.468;2022-10-16T03:40:05;12.70;99.90
27306;DHT22;14792;50.886;6.468;2022-10-16T03:43:07;12.70;99.90
27306;DHT22;14792;50.886;6.468;2022-10-16T03:46:08;12.70;99.90
27306;DHT22;14792;50.886;6.468;2022-10-16T03:49:10;12.70;99.90
27306;DHT22;14792;50.886;6.468;2022-10-16T03:52:11;12.70;99.90
27306;DHT22;14792;50.886;6.468;2022-10-16T03:55:13;12.70;99.90
27306;DHT22;14792;50.886;6.468;2022-10-16T03:58:15;12.70;99.90
27306;DHT22;14792;50.886;6.468;2022-10-16T04:01:16;12.60;99.90
27306;DHT22;14792;50.886;6.468;2022-10-16T04:04:18;12.70;99.90
27306;DHT22;14792;50.886;6.468;2022-10-16T04:07:19;12.70;99.90
27306;DHT22;14792;50.886;6.468;2022-10-16T04:10:21;12.60;99.90
27306;DHT22;14792;50.886;6.468;2022-10-16T04:13:23;12.60;99.90
27306;DHT22;14792;50.886;6.468;2022-10-16T04:16:25;12.60;99.90
27306;DHT22;14792;50.886;6.468;2022-10-16T04:19:26;12.60;99.90
27306;DHT22;14792;50.886;6.468;2022-10-16T04:22:28;12.60;99.90
27306;DHT22;14792;50.886;6.468;2022-10-16T04:25:30;12.50;99.90
27306;DHT22;14792;50.886;6.468;2022-10-16T04:28:31;12.50;99.90
27306;DHT22;14792;50.886;6.468;2022-10-16T04:31:33;12.40;99.90
27306;DHT22;14792;50.886;6.468;2022-10-16T04:34:34;12.40;99.90
27306;DHT22;14792;50.886;6.468;2022-10-16T04:37:36;12.50;99.90
27306;DHT22;14792;50.886;6.468;2022-10-16T04:40:38;12.50;99.90
27306;DHT22;14792;50.886;6.468;2022-10-16T04:43:39;12.50;99.90
27306;DHT22;14792;50.886;6.468;2022-10-16T04:46:41;12.40;99.90
27306;DHT22;14792;50.886;6.468;2022-10-16T04:49:42;12.30;99.90
27306;DHT22;14792;50.886;6.468;2022-10-16T04:52:44;12.20;99.90
27306;DHT22;14792;50.886;6.468;2022-10-16T04:55:46;12.10;99.90
27306;DHT22;14792;50.886;6.468;2022-10-16T04:58:47;12.10;99.90
27306;DHT22;14792;50.886;6.468;2022-10-16T05:01:49;12.00;99.90
27306;DHT22;14792;50.886;6.468;2022-10-16T05:04:52;12.00;99.90
27306;DHT22;14792;50.886;6.468;2022-10-16T05:07:54;12.20;99.90
27306;DHT22;14792;50.886;6.468;2022-10-16T05:10:56;12.20;99.90
27306;DHT22;14792;50.886;6.468;2022-10-16T05:13:57;12.20;99.90
27306;DHT22;14792;50.886;6.468;2022-10-16T05:16:59;12.30;99.90
27306;DHT22;14792;50.886;6.468;2022-10-16T05:20:00;12.30;99.90
27306;DHT22;14792;50.886;6.468;2022-10-16T05:23:02;12.30;99.90
27306;DHT22;14792;50.886;6.468;2022-10-16T05:26:03;12.30;99.90
27306;DHT22;14792;50.886;6.468;2022-10-16T05:29:05;12.30;99.90
27306;DHT22;14792;50.886;6.468;2022-10-16T05:32:07;12.40;99.90
27306;DHT22;14792;50.886;6.468;2022-10-16T05:35:08;12.40;99.90
27306;DHT22;14792;50.886;6.468;2022-10-16T05:38:10;12.40;99.90
27306;DHT22;14792;50.886;6.468;2022-10-16T05:41:12;12.40;99.90
27306;DHT22;14792;50.886;6.468;2022-10-16T05:44:16;12.30;99.90
27306;DHT22;14792;50.886;6.468;2022-10-16T05:47:18;12.30;99.90
27306;DHT22;14792;50.886;6.468;2022-10-16T05:50:20;12.20;99.90
27306;DHT22;14792;50.886;6.468;2022-10-16T05:53:23;12.30;99.90
27306;DHT22;14792;50.886;6.468;2022-10-16T05:56:25;12.30;99.90
27306;DHT22;14792;50.886;6.468;2022-10-16T05:59:26;12.40;99.90
27306;DHT22;14792;50.886;6.468;2022-10-16T06:02:28;12.40;99.90
27306;DHT22;14792;50.886;6.468;2022-10-16T06:05:29;12.30;99.90
27306;DHT22;14792;50.886;6.468;2022-10-16T06:08:31;12.20;99.90
27306;DHT22;14792;50.886;6.468;2022-10-16T06:11:33;12.10;99.90
27306;DHT22;14792;50.886;6.468;2022-10-16T06:14:34;12.10;99.90
27306;DHT22;14792;50.886;6.468;2022-10-16T06:17:36;12.10;99.90
27306;DHT22;14792;50.886;6.468;2022-10-16T06:20:37;12.10;99.90
27306;DHT22;14792;50.886;6.468;2022-10-16T06:23:39;12.20;99.90
27306;DHT22;14792;50.886;6.468;2022-10-16T06:26:41;12.20;99.90
27306;DHT22;14792;50.886;6.468;2022-10-16T06:29:42;12.20;99.90
27306;DHT22;14792;50.886;6.468;2022-10-16T06:32:44;12.20;99.90
27306;DHT22;14792;50.886;6.468;2022-10-16T06:35:46;12.20;99.90
27306;DHT22;14792;50.886;6.468;2022-10-16T06:38:47;12.30;99.90
27306;DHT22;14792;50.886;6.468;2022-10-16T06:41:49;12.40;99.90
27306;DHT22;14792;50.886;6.468;2022-10-16T06:44:51;12.50;99.90
27306;DHT22;14792;50.886;6.468;2022-10-16T06:47:53;12.60;99.90
27306;DHT22;14792;50.886;6.468;2022-10-16T06:50:58;12.70;99.90
27306;DHT22;14792;50.886;6.468;2022-10-16T06:53:56;12.80;99.90
27306;DHT22;14792;50.886;6.468;2022-10-16T06:56:58;12.90;99.90
27306;DHT22;14792;50.886;6.468;2022-10-16T06:59:59;13.00;99.90
27306;DHT22;14792;50.886;6.468;2022-10-16T07:03:01;13.00;99.90
27306;DHT22;14792;50.886;6.468;2022-10-16T07:06:03;13.10;99.90
27306;DHT22;14792;50.886;6.468;2022-10-16T07:09:05;13.20;99.90
27306;DHT22;14792;50.886;6.468;2022-10-16T07:12:06;13.30;99.90
27306;DHT22;14792;50.886;6.468;2022-10-16T07:15:08;13.40;99.90
27306;DHT22;14792;50.886;6.468;2022-10-16T07:18:09;13.50;99.90
27306;DHT22;14792;50.886;6.468;2022-10-16T07:21:14;13.50;99.90
27306;DHT22;14792;50.886;6.468;2022-10-16T07:24:14;13.60;99.90
27306;DHT22;14792;50.886;6.468;2022-10-16T07:27:14;13.70;99.90
27306;DHT22;14792;50.886;6.468;2022-10-16T07:30:16;13.80;99.90
27306;DHT22;14792;50.886;6.468;2022-10-16T07:33:18;13.80;99.90
27306;DHT22;14792;50.886;6.468;2022-10-16T07:36:20;13.80;99.90
27306;DHT22;14792;50.886;6.468;2022-10-16T07:39:21;13.80;99.90
27306;DHT22;14792;50.886;6.468;2022-10-16T07:42:23;13.80;99.90
27306;DHT22;14792;50.886;6.468;2022-10-16T07:45:25;13.80;99.90
27306;DHT22;14792;50.886;6.468;2022-10-16T07:48:30;13.90;99.90
27306;DHT22;14792;50.886;6.468;2022-10-16T07:51:30;14.10;99.90
27306;DHT22;14792;50.886;6.468;2022-10-16T07:54:32;14.40;99.90
27306;DHT22;14792;50.886;6.468;2022-10-16T07:57:34;14.70;99.90
27306;DHT22;14792;50.886;6.468;2022-10-16T08:00:36;15.00;99.90
27306;DHT22;14792;50.886;6.468;2022-10-16T08:03:37;15.20;99.90
27306;DHT22;14792;50.886;6.468;2022-10-16T08:06:39;15.50;99.90
27306;DHT22;14792;50.886;6.468;2022-10-16T08:09:40;15.60;99.90
27306;DHT22;14792;50.886;6.468;2022-10-16T08:12:42;15.90;99.90
27306;DHT22;14792;50.886;6.468;2022-10-16T08:15:44;16.00;99.90
27306;DHT22;14792;50.886;6.468;2022-10-16T08:18:45;16.20;99.90
27306;DHT22;14792;50.886;6.468;2022-10-16T08:21:47;16.30;99.90
27306;DHT22;14792;50.886;6.468;2022-10-16T08:24:49;16.40;99.90
27306;DHT22;14792;50.886;6.468;2022-10-16T08:27:50;16.40;99.90
27306;DHT22;14792;50.886;6.468;2022-10-16T08:30:53;16.60;99.90
27306;DHT22;14792;50.886;6.468;2022-10-16T08:33:55;16.80;99.90
27306;DHT22;14792;50.886;6.468;2022-10-16T08:36:57;16.90;99.90
27306;DHT22;14792;50.886;6.468;2022-10-16T08:39:58;17.00;99.90
27306;DHT22;14792;50.886;6.468;2022-10-16T08:46:30;17.10;99.90
27306;DHT22;14792;50.886;6.468;2022-10-16T08:49:27;17.20;99.90
27306;DHT22;14792;50.886;6.468;2022-10-16T08:52:29;17.30;99.90
27306;DHT22;14792;50.886;6.468;2022-10-16T08:55:43;17.40;99.90
27306;DHT22;14792;50.886;6.468;2022-10-16T08:58:44;17.40;99.90
27306;DHT22;14792;50.886;6.468;2022-10-16T09:01:46;17.30;99.90
27306;DHT22;14792;50.886;6.468;2022-10-16T09:08:09;17.50;99.90
27306;DHT22;14792;50.886;6.468;2022-10-16T09:17:50;17.70;99.90
27306;DHT22;14792;50.886;6.468;2022-10-16T09:21:01;17.70;99.90
27306;DHT22;14792;50.886;6.468;2022-10-16T09:24:08;17.70;99.90
27306;DHT22;14792;50.886;6.468;2022-10-16T09:27:02;17.80;99.90
27306;DHT22;14792;50.886;6.468;2022-10-16T09:30:17;17.80;99.90
27306;DHT22;14792;50.886;6.468;2022-10-16T09:33:15;17.80;99.90
27306;DHT22;14792;50.886;6.468;2022-10-16T09:36:16;17.80;99.90
27306;DHT22;14792;50.886;6.468;2022-10-16T09:39:18;17.90;99.90
27306;DHT22;14792;50.886;6.468;2022-10-16T09:42:34;18.00;99.90
27306;DHT22;14792;50.886;6.468;2022-10-16T09:45:34;18.10;99.90
27306;DHT22;14792;50.886;6.468;2022-10-16T09:48:46;18.20;99.90
27306;DHT22;14792;50.886;6.468;2022-10-16T09:51:46;18.30;99.90
27306;DHT22;14792;50.886;6.468;2022-10-16T09:55:00;18.20;99.90
27306;DHT22;14792;50.886;6.468;2022-10-16T09:58:01;18.20;99.90
27306;DHT22;14792;50.886;6.468;2022-10-16T10:01:03;18.40;99.90
27306;DHT22;14792;50.886;6.468;2022-10-16T10:04:04;18.40;99.90
27306;DHT22;14792;50.886;6.468;2022-10-16T10:07:06;18.60;99.90
27306;DHT22;14792;50.886;6.468;2022-10-16T10:10:20;18.60;99.90
27306;DHT22;14792;50.886;6.468;2022-10-16T10:13:21;18.50;99.90
27306;DHT22;14792;50.886;6.468;2022-10-16T10:16:25;18.50;99.90
27306;DHT22;14792;50.886;6.468;2022-10-16T10:19:27;18.40;99.90
27306;DHT22;14792;50.886;6.468;2022-10-16T10:22:32;18.20;99.90
27306;DHT22;14792;50.886;6.468;2022-10-16T10:29:15;18.10;99.90
27306;DHT22;14792;50.886;6.468;2022-10-16T10:32:18;18.10;99.90
27306;DHT22;14792;50.886;6.468;2022-10-16T10:35:29;18.20;99.90
27306;DHT22;14792;50.886;6.468;2022-10-16T10:41:54;18.20;99.90
27306;DHT22;14792;50.886;6.468;2022-10-16T10:45:11;18.20;99.90
27306;DHT22;14792;50.886;6.468;2022-10-16T10:51:13;18.20;99.90
27306;DHT22;14792;50.886;6.468;2022-10-16T10:57:29;18.10;99.90
27306;DHT22;14792;50.886;6.468;2022-10-16T11:00:45;18.10;99.90
27306;DHT22;14792;50.886;6.468;2022-10-16T11:06:58;17.90;99.90
27306;DHT22;14792;50.886;6.468;2022-10-16T11:10:15;17.90;99.90
27306;DHT22;14792;50.886;6.468;2022-10-16T11:16:30;18.30;99.90
27306;DHT22;14792;50.886;6.468;2022-10-16T11:19:51;18.30;99.90
27306;DHT22;14792;50.886;6.468;2022-10-16T11:22:48;18.30;99.90
27306;DHT22;14792;50.886;6.468;2022-10-16T11:25:48;18.50;99.90
27306;DHT22;14792;50.886;6.468;2022-10-16T11:28:54;18.50;99.90
27306;DHT22;14792;50.886;6.468;2022-10-16T11:32:49;18.50;99.90
27306;DHT22;14792;50.886;6.468;2022-10-16T11:35:02;18.50;99.90
27306;DHT22;14792;50.886;6.468;2022-10-16T11:38:02;18.60;99.90
27306;DHT22;14792;50.886;6.468;2022-10-16T11:41:21;18.70;99.90
27306;DHT22;14792;50.886;6.468;2022-10-16T11:54:28;18.80;99.90
27306;DHT22;14792;50.886;6.468;2022-10-16T11:57:29;18.80;99.90
27306;DHT22;14792;50.886;6.468;2022-10-16T12:00:46;18.80;99.90
27306;DHT22;14792;50.886;6.468;2022-10-16T12:07:08;18.90;99.90
27306;DHT22;14792;50.886;6.468;2022-10-16T12:10:26;19.10;99.90
27306;DHT22;14792;50.886;6.468;2022-10-16T12:16:33;19.00;99.90
27306;DHT22;14792;50.886;6.468;2022-10-16T12:19:35;19.10;99.90
27306;DHT22;14792;50.886;6.468;2022-10-16T12:22:37;19.10;99.90
27306;DHT22;14792;50.886;6.468;2022-10-16T12:25:39;19.10;99.90
27306;DHT22;14792;50.886;6.468;2022-10-16T12:28:40;19.10;99.90
27306;DHT22;14792;50.886;6.468;2022-10-16T12:31:45;19.30;99.90
27306;DHT22;14792;50.886;6.468;2022-10-16T12:34:46;19.40;99.90
27306;DHT22;14792;50.886;6.468;2022-10-16T12:37:48;19.40;99.90
27306;DHT22;14792;50.886;6.468;2022-10-16T12:43:57;19.40;99.90
27306;DHT22;14792;50.886;6.468;2022-10-16T12:46:59;19.40;99.90
27306;DHT22;14792;50.886;6.468;2022-10-16T12:50:00;19.30;99.90
27306;DHT22;14792;50.886;6.468;2022-10-16T12:53:03;19.30;99.90
27306;DHT22;14792;50.886;6.468;2022-10-16T12:56:21;19.30;99.90
27306;DHT22;14792;50.886;6.468;2022-10-16T13:02:49;19.20;99.90
27306;DHT22;14792;50.886;6.468;2022-10-16T13:06:08;19.20;99.90
27306;DHT22;14792;50.886;6.468;2022-10-16T13:15:51;19.50;99.90
27306;DHT22;14792;50.886;6.468;2022-10-16T13:19:16;19.70;99.90
27306;DHT22;14792;50.886;6.468;2022-10-16T13:25:36;19.80;99.90
27306;DHT22;14792;50.886;6.468;2022-10-16T13:28:35;19.70;99.90
27306;DHT22;14792;50.886;6.468;2022-10-16T13:31:37;19.60;99.90
27306;DHT22;14792;50.886;6.468;2022-10-16T13:34:44;19.60;99.90
27306;DHT22;14792;50.886;6.468;2022-10-16T13:37:45;19.50;99.90
27306;DHT22;14792;50.886;6.468;2022-10-16T13:43:56;19.60;99.90
27306;DHT22;14792;50.886;6.468;2022-10-16T13:47:01;19.80;99.90
27306;DHT22;14792;50.886;6.468;2022-10-16T13:50:04;19.80;99.90
27306;DHT22;14792;50.886;6.468;2022-10-16T13:53:04;19.50;99.90
27306;DHT22;14792;50.886;6.468;2022-10-16T13:56:07;19.50;99.90
27306;DHT22;14792;50.886;6.468;2022-10-16T13:59:22;19.50;99.90
27306;DHT22;14792;50.886;6.468;2022-10-16T14:02:26;19.60;99.90
27306;DHT22;14792;50.886;6.468;2022-10-16T14:05:26;19.60;99.90
27306;DHT22;14792;50.886;6.468;2022-10-16T14:08:28;19.40;99.90
27306;DHT22;14792;50.886;6.468;2022-10-16T14:11:30;19.40;99.90
27306;DHT22;14792;50.886;6.468;2022-10-16T14:14:34;19.40;99.90
27306;DHT22;14792;50.886;6.468;2022-10-16T14:17:34;19.40;99.90
27306;DHT22;14792;50.886;6.468;2022-10-16T14:20:35;19.40;99.90
27306;DHT22;14792;50.886;6.468;2022-10-16T14:23:37;19.20;99.90
27306;DHT22;14792;50.886;6.468;2022-10-16T14:26:44;19.20;99.90
27306;DHT22;14792;50.886;6.468;2022-10-16T14:29:46;19.10;99.90
27306;DHT22;14792;50.886;6.468;2022-10-16T14:32:57;19.10;99.90
27306;DHT22;14792;50.886;6.468;2022-10-16T14:39:04;19.20;99.90
27306;DHT22;14792;50.886;6.468;2022-10-16T14:42:11;19.30;99.90
27306;DHT22;14792;50.886;6.468;2022-10-16T14:45:07;19.40;99.90
27306;DHT22;14792;50.886;6.468;2022-10-16T14:48:14;19.40;99.90
27306;DHT22;14792;50.886;6.468;2022-10-16T14:51:16;19.30;99.90
27306;DHT22;14792;50.886;6.468;2022-10-16T14:54:17;19.30;99.90
27306;DHT22;14792;50.886;6.468;2022-10-16T14:57:23;19.30;99.90
27306;DHT22;14792;50.886;6.468;2022-10-16T15:00:21;19.30;99.90
27306;DHT22;14792;50.886;6.468;2022-10-16T15:03:22;19.30;99.90
27306;DHT22;14792;50.886;6.468;2022-10-16T15:06:25;19.20;99.90
27306;DHT22;14792;50.886;6.468;2022-10-16T15:09:26;19.10;99.90
27306;DHT22;14792;50.886;6.468;2022-10-16T15:12:28;19.30;99.90
27306;DHT22;14792;50.886;6.468;2022-10-16T15:15:36;19.10;99.90
27306;DHT22;14792;50.886;6.468;2022-10-16T15:18:37;19.10;99.90
27306;DHT22;14792;50.886;6.468;2022-10-16T15:21:38;19.10;99.90
27306;DHT22;14792;50.886;6.468;2022-10-16T15:24:40;19.00;99.90
27306;DHT22;14792;50.886;6.468;2022-10-16T15:27:42;18.90;99.90
27306;DHT22;14792;50.886;6.468;2022-10-16T15:30:43;18.80;99.90
27306;DHT22;14792;50.886;6.468;2022-10-16T15:33:52;18.70;99.90
27306;DHT22;14792;50.886;6.468;2022-10-16T15:36:56;18.70;99.90
27306;DHT22;14792;50.886;6.468;2022-10-16T15:39:57;18.60;99.90
27306;DHT22;14792;50.886;6.468;2022-10-16T15:42:59;18.50;99.90
27306;DHT22;14792;50.886;6.468;2022-10-16T15:46:01;18.50;99.90
27306;DHT22;14792;50.886;6.468;2022-10-16T15:49:02;18.50;99.90
27306;DHT22;14792;50.886;6.468;2022-10-16T15:52:04;18.40;99.90
27306;DHT22;14792;50.886;6.468;2022-10-16T15:55:06;18.40;99.90
27306;DHT22;14792;50.886;6.468;2022-10-16T15:58:07;18.40;99.90
27306;DHT22;14792;50.886;6.468;2022-10-16T16:01:09;18.30;99.90
27306;DHT22;14792;50.886;6.468;2022-10-16T16:04:10;18.30;99.90
27306;DHT22;14792;50.886;6.468;2022-10-16T16:07:12;18.20;99.90
27306;DHT22;14792;50.886;6.468;2022-10-16T16:10:14;18.20;99.90
27306;DHT22;14792;50.886;6.468;2022-10-16T16:13:15;18.20;99.90
27306;DHT22;14792;50.886;6.468;2022-10-16T16:16:17;18.10;99.90
27306;DHT22;14792;50.886;6.468;2022-10-16T16:19:19;18.00;99.90
27306;DHT22;14792;50.886;6.468;2022-10-16T16:22:20;18.00;99.90
27306;DHT22;14792;50.886;6.468;2022-10-16T16:25:22;17.90;99.90
27306;DHT22;14792;50.886;6.468;2022-10-16T16:28:26;17.80;99.90
27306;DHT22;14792;50.886;6.468;2022-10-16T16:31:28;17.80;99.90
27306;DHT22;14792;50.886;6.468;2022-10-16T16:34:29;17.70;99.90
27306;DHT22;14792;50.886;6.468;2022-10-16T16:37:30;17.70;99.90
27306;DHT22;14792;50.886;6.468;2022-10-16T16:40:33;17.50;99.90
27306;DHT22;14792;50.886;6.468;2022-10-16T16:43:34;17.50;99.90
27306;DHT22;14792;50.886;6.468;2022-10-16T16:46:36;17.50;99.90
27306;DHT22;14792;50.886;6.468;2022-10-16T16:49:37;17.50;99.90
27306;DHT22;14792;50.886;6.468;2022-10-16T16:52:39;17.50;99.90
27306;DHT22;14792;50.886;6.468;2022-10-16T16:55:41;17.50;99.90
27306;DHT22;14792;50.886;6.468;2022-10-16T16:58:44;17.50;99.90
27306;DHT22;14792;50.886;6.468;2022-10-16T17:01:44;17.40;99.90
27306;DHT22;14792;50.886;6.468;2022-10-16T17:04:45;17.30;99.90
27306;DHT22;14792;50.886;6.468;2022-10-16T17:07:47;17.30;99.90
27306;DHT22;14792;50.886;6.468;2022-10-16T17:10:49;17.30;99.90
27306;DHT22;14792;50.886;6.468;2022-10-16T17:13:52;17.30;99.90
27306;DHT22;14792;50.886;6.468;2022-10-16T17:16:53;17.30;99.90
27306;DHT22;14792;50.886;6.468;2022-10-16T17:19:55;17.30;99.90
27306;DHT22;14792;50.886;6.468;2022-10-16T17:22:56;17.30;99.90
27306;DHT22;14792;50.886;6.468;2022-10-16T17:26:08;17.30;99.90
27306;DHT22;14792;50.886;6.468;2022-10-16T17:29:09;17.30;99.90
27306;DHT22;14792;50.886;6.468;2022-10-16T17:32:10;17.30;99.90
27306;DHT22;14792;50.886;6.468;2022-10-16T17:35:12;17.30;99.90
27306;DHT22;14792;50.886;6.468;2022-10-16T17:38:13;17.30;99.90
27306;DHT22;14792;50.886;6.468;2022-10-16T17:41:16;17.30;99.90
27306;DHT22;14792;50.886;6.468;2022-10-16T17:44:17;17.30;99.90
27306;DHT22;14792;50.886;6.468;2022-10-16T17:47:22;17.30;99.90
27306;DHT22;14792;50.886;6.468;2022-10-16T17:50:24;17.30;99.90
27306;DHT22;14792;50.886;6.468;2022-10-16T17:53:25;17.20;99.90
27306;DHT22;14792;50.886;6.468;2022-10-16T17:56:27;17.30;99.90
27306;DHT22;14792;50.886;6.468;2022-10-16T17:59:29;17.20;99.90
27306;DHT22;14792;50.886;6.468;2022-10-16T18:02:30;17.20;99.90
27306;DHT22;14792;50.886;6.468;2022-10-16T18:05:32;17.20;99.90
27306;DHT22;14792;50.886;6.468;2022-10-16T18:08:33;17.20;99.90
27306;DHT22;14792;50.886;6.468;2022-10-16T18:11:38;17.20;99.90
27306;DHT22;14792;50.886;6.468;2022-10-16T18:14:39;17.10;99.90
27306;DHT22;14792;50.886;6.468;2022-10-16T18:17:41;17.10;99.90
27306;DHT22;14792;50.886;6.468;2022-10-16T18:20:42;17.20;99.90
27306;DHT22;14792;50.886;6.468;2022-10-16T18:23:44;17.20;99.90
27306;DHT22;14792;50.886;6.468;2022-10-16T18:26:48;17.20;99.90
27306;DHT22;14792;50.886;6.468;2022-10-16T18:29:47;17.20;99.90
27306;DHT22;14792;50.886;6.468;2022-10-16T18:32:49;17.20;99.90
27306;DHT22;14792;50.886;6.468;2022-10-16T18:35:50;17.20;99.90
27306;DHT22;14792;50.886;6.468;2022-10-16T18:38:54;17.30;99.90
27306;DHT22;14792;50.886;6.468;2022-10-16T18:41:55;17.30;99.90
27306;DHT22;14792;50.886;6.468;2022-10-16T18:44:57;17.30;99.90
27306;DHT22;14792;50.886;6.468;2022-10-16T18:47:58;17.40;99.90
27306;DHT22;14792;50.886;6.468;2022-10-16T18:51:10;17.30;99.90
27306;DHT22;14792;50.886;6.468;2022-10-16T18:54:11;17.30;99.90
27306;DHT22;14792;50.886;6.468;2022-10-16T18:57:12;17.30;99.90
27306;DHT22;14792;50.886;6.468;2022-10-16T19:00:13;17.30;99.90
27306;DHT22;14792;50.886;6.468;2022-10-16T19:03:15;17.30;99.90
27306;DHT22;14792;50.886;6.468;2022-10-16T19:06:17;17.30;99.90
27306;DHT22;14792;50.886;6.468;2022-10-16T19:09:22;17.20;99.90
27306;DHT22;14792;50.886;6.468;2022-10-16T19:12:24;17.20;99.90
27306;DHT22;14792;50.886;6.468;2022-10-16T19:15:25;17.20;99.90
27306;DHT22;14792;50.886;6.468;2022-10-16T19:18:27;17.20;99.90
27306;DHT22;14792;50.886;6.468;2022-10-16T19:21:29;17.20;99.90
27306;DHT22;14792;50.886;6.468;2022-10-16T19:24:31;17.10;99.90
27306;DHT22;14792;50.886;6.468;2022-10-16T19:27:32;17.10;99.90
27306;DHT22;14792;50.886;6.468;2022-10-16T19:30:37;17.10;99.90
27306;DHT22;14792;50.886;6.468;2022-10-16T19:33:38;17.10;99.90
27306;DHT22;14792;50.886;6.468;2022-10-16T19:36:40;17.10;99.90
27306;DHT22;14792;50.886;6.468;2022-10-16T19:39:41;17.10;99.90
27306;DHT22;14792;50.886;6.468;2022-10-16T19:42:43;17.10;99.90
27306;DHT22;14792;50.886;6.468;2022-10-16T19:45:44;17.10;99.90
27306;DHT22;14792;50.886;6.468;2022-10-16T19:48:46;17.10;99.90
27306;DHT22;14792;50.886;6.468;2022-10-16T19:51:48;17.10;99.90
27306;DHT22;14792;50.886;6.468;2022-10-16T19:54:49;17.10;99.90
27306;DHT22;14792;50.886;6.468;2022-10-16T19:57:51;17.00;99.90
27306;DHT22;14792;50.886;6.468;2022-10-16T20:00:53;17.00;99.90
27306;DHT22;14792;50.886;6.468;2022-10-16T20:03:55;16.90;99.90
27306;DHT22;14792;50.886;6.468;2022-10-16T20:06:56;17.00;99.90
27306;DHT22;14792;50.886;6.468;2022-10-16T20:09:58;16.90;99.90
27306;DHT22;14792;50.886;6.468;2022-10-16T20:12:59;16.90;99.90
27306;DHT22;14792;50.886;6.468;2022-10-16T20:16:02;16.80;99.90
27306;DHT22;14792;50.886;6.468;2022-10-16T20:19:03;16.80;99.90
27306;DHT22;14792;50.886;6.468;2022-10-16T20:22:05;16.80;99.90
27306;DHT22;14792;50.886;6.468;2022-10-16T20:25:06;16.70;99.90
27306;DHT22;14792;50.886;6.468;2022-10-16T20:28:08;16.70;99.90
27306;DHT22;14792;50.886;6.468;2022-10-16T20:31:14;16.70;99.90
27306;DHT22;14792;50.886;6.468;2022-10-16T20:34:11;16.60;99.90
27306;DHT22;14792;50.886;6.468;2022-10-16T20:37:12;16.60;99.90